sensor_id;sensor_type;location;lat;lon;timestamp;pressure;altitude;pressure_sealevel;temperature
15079;BMP180;6932;51.438;5.470;2023-10-09T00:02:12;101688.00;;;21.50
15079;BMP180;6932;51.438;5.470;2023-10-09T00:04:40;101680.00;;;21.50
15079;BMP180;6932;51.438;5.470;2023-10-09T00:07:08;101676.00;;;21.50
15079;BMP180;6932;51.438;5.470;2023-10-09T00:09:35;101670.00;;;21.50
15079;BMP180;6932;51.438;5.470;2023-10-09T00:12:20;101672.00;;;21.40
15079;BMP180;6932;51.438;5.470;2023-10-09T00:14:49;101675.00;;;21.50
15079;BMP180;6932;51.438;5.470;2023-10-09T00:17:19;101677.00;;;21.50
15079;BMP180;6932;51.438;5.470;2023-10-09T00:19:47;101673.00;;;21.50
15079;BMP180;6932;51.438;5.470;2023-10-09T00:22:18;101676.00;;;21.50
15079;BMP180;6932;51.438;5.470;2023-10-09T00:24:49;101668.00;;;21.50
15079;BMP180;6932;51.438;5.470;2023-10-09T00:27:25;101659.00;;;21.50
15079;BMP180;6932;51.438;5.470;2023-10-09T00:29:56;101648.00;;;21.50
15079;BMP180;6932;51.438;5.470;2023-10-09T00:32:22;101659.00;;;21.50
15079;BMP180;6932;51.438;5.470;2023-10-09T00:34:49;101660.00;;;21.60
15079;BMP180;6932;51.438;5.470;2023-10-09T00:37:17;101662.00;;;21.60
15079;BMP180;6932;51.438;5.470;2023-10-09T00:39:45;101671.00;;;21.60
15079;BMP180;6932;51.438;5.470;2023-10-09T00:42:14;101656.00;;;21.60
15079;BMP180;6932;51.438;5.470;2023-10-09T00:44:51;101646.00;;;21.60
15079;BMP180;6932;51.438;5.470;2023-10-09T00:47:18;101636.00;;;21.60
15079;BMP180;6932;51.438;5.470;2023-10-09T00:49:55;101630.00;;;21.60
15079;BMP180;6932;51.438;5.470;2023-10-09T00:52:30;101637.00;;;21.60
15079;BMP180;6932;51.438;5.470;2023-10-09T00:55:04;101629.00;;;21.60
15079;BMP180;6932;51.438;5.470;2023-10-09T00:57:37;101623.00;;;21.60
15079;BMP180;6932;51.438;5.470;2023-10-09T01:00:03;101619.00;;;21.60
15079;BMP180;6932;51.438;5.470;2023-10-09T01:02:49;101630.00;;;21.70
15079;BMP180;6932;51.438;5.470;2023-10-09T01:05:35;101646.00;;;21.60
15079;BMP180;6932;51.438;5.470;2023-10-09T01:08:03;101642.00;;;21.70
15079;BMP180;6932;51.438;5.470;2023-10-09T01:10:46;101649.00;;;21.70
15079;BMP180;6932;51.438;5.470;2023-10-09T01:13:17;101653.00;;;21.70
15079;BMP180;6932;51.438;5.470;2023-10-09T01:15:44;101636.00;;;21.70
15079;BMP180;6932;51.438;5.470;2023-10-09T01:18:11;101638.00;;;21.70
15079;BMP180;6932;51.438;5.470;2023-10-09T01:20:38;101641.00;;;21.70
15079;BMP180;6932;51.438;5.470;2023-10-09T01:23:12;101644.00;;;21.70
15079;BMP180;6932;51.438;5.470;2023-10-09T01:25:38;101637.00;;;21.70
15079;BMP180;6932;51.438;5.470;2023-10-09T01:28:15;101632.00;;;21.80
15079;BMP180;6932;51.438;5.470;2023-10-09T01:30:43;101642.00;;;21.80
15079;BMP180;6932;51.438;5.470;2023-10-09T01:33:09;101636.00;;;21.80
15079;BMP180;6932;51.438;5.470;2023-10-09T01:35:48;101648.00;;;21.80
15079;BMP180;6932;51.438;5.470;2023-10-09T01:38:16;101641.00;;;21.80
15079;BMP180;6932;51.438;5.470;2023-10-09T01:40:42;101646.00;;;21.80
15079;BMP180;6932;51.438;5.470;2023-10-09T01:43:09;101648.00;;;21.70
15079;BMP180;6932;51.438;5.470;2023-10-09T01:45:36;101643.00;;;21.70
15079;BMP180;6932;51.438;5.470;2023-10-09T01:48:12;101642.00;;;21.70
15079;BMP180;6932;51.438;5.470;2023-10-09T01:50:40;101641.00;;;21.70
15079;BMP180;6932;51.438;5.470;2023-10-09T01:53:08;101637.00;;;21.70
15079;BMP180;6932;51.438;5.470;2023-10-09T01:55:34;101645.00;;;21.70
15079;BMP180;6932;51.438;5.470;2023-10-09T01:58:07;101640.00;;;21.70
15079;BMP180;6932;51.438;5.470;2023-10-09T02:00:48;101634.00;;;21.70
15079;BMP180;6932;51.438;5.470;2023-10-09T02:03:22;101636.00;;;21.70
15079;BMP180;6932;51.438;5.470;2023-10-09T02:06:02;101639.00;;;21.70
15079;BMP180;6932;51.438;5.470;2023-10-09T02:08:44;101635.00;;;21.70
15079;BMP180;6932;51.438;5.470;2023-10-09T02:11:15;101632.00;;;21.70
15079;BMP180;6932;51.438;5.470;2023-10-09T02:13:53;101642.00;;;21.70
15079;BMP180;6932;51.438;5.470;2023-10-09T02:16:26;101641.00;;;21.70
15079;BMP180;6932;51.438;5.470;2023-10-09T02:18:56;101638.00;;;21.70
15079;BMP180;6932;51.438;5.470;2023-10-09T02:21:22;101635.00;;;21.70
15079;BMP180;6932;51.438;5.470;2023-10-09T02:24:06;101626.00;;;21.60
15079;BMP180;6932;51.438;5.470;2023-10-09T02:26:35;101623.00;;;21.60
15079;BMP180;6932;51.438;5.470;2023-10-09T02:29:03;101631.00;;;21.70
15079;BMP180;6932;51.438;5.470;2023-10-09T02:31:45;101623.00;;;21.60
15079;BMP180;6932;51.438;5.470;2023-10-09T02:34:17;101639.00;;;21.60
15079;BMP180;6932;51.438;5.470;2023-10-09T02:36:51;101639.00;;;21.60
15079;BMP180;6932;51.438;5.470;2023-10-09T02:39:31;101624.00;;;21.60
15079;BMP180;6932;51.438;5.470;2023-10-09T02:42:09;101615.00;;;21.60
15079;BMP180;6932;51.438;5.470;2023-10-09T02:44:38;101600.00;;;21.60
15079;BMP180;6932;51.438;5.470;2023-10-09T02:47:12;101601.00;;;21.60
15079;BMP180;6932;51.438;5.470;2023-10-09T02:49:47;101604.00;;;21.60
15079;BMP180;6932;51.438;5.470;2023-10-09T02:52:17;101595.00;;;21.60
15079;BMP180;6932;51.438;5.470;2023-10-09T02:54:51;101594.00;;;21.60
15079;BMP180;6932;51.438;5.470;2023-10-09T02:57:28;101588.00;;;21.60
15079;BMP180;6932;51.438;5.470;2023-10-09T03:00:04;101590.00;;;21.60
15079;BMP180;6932;51.438;5.470;2023-10-09T03:02:35;101591.00;;;21.60
15079;BMP180;6932;51.438;5.470;2023-10-09T03:05:06;101593.00;;;21.60
15079;BMP180;6932;51.438;5.470;2023-10-09T03:07:38;101591.00;;;21.60
15079;BMP180;6932;51.438;5.470;2023-10-09T03:10:07;101596.00;;;21.60
15079;BMP180;6932;51.438;5.470;2023-10-09T03:12:35;101599.00;;;21.60
15079;BMP180;6932;51.438;5.470;2023-10-09T03:15:01;101617.00;;;21.60
15079;BMP180;6932;51.438;5.470;2023-10-09T03:17:31;101615.00;;;21.60
15079;BMP180;6932;51.438;5.470;2023-10-09T03:20:05;101613.00;;;21.50
15079;BMP180;6932;51.438;5.470;2023-10-09T03:22:41;101598.00;;;21.50
15079;BMP180;6932;51.438;5.470;2023-10-09T03:25:08;101599.00;;;21.60
15079;BMP180;6932;51.438;5.470;2023-10-09T03:27:40;101589.00;;;21.60
15079;BMP180;6932;51.438;5.470;2023-10-09T03:30:15;101583.00;;;21.50
15079;BMP180;6932;51.438;5.470;2023-10-09T03:32:44;101580.00;;;21.60
15079;BMP180;6932;51.438;5.470;2023-10-09T03:35:12;101571.00;;;21.60
15079;BMP180;6932;51.438;5.470;2023-10-09T03:37:41;101570.00;;;21.60
15079;BMP180;6932;51.438;5.470;2023-10-09T03:40:08;101577.00;;;21.60
15079;BMP180;6932;51.438;5.470;2023-10-09T03:42:40;101567.00;;;21.60
15079;BMP180;6932;51.438;5.470;2023-10-09T03:45:08;101562.00;;;21.60
15079;BMP180;6932;51.438;5.470;2023-10-09T03:47:57;101554.00;;;21.50
15079;BMP180;6932;51.438;5.470;2023-10-09T03:50:43;101550.00;;;21.50
15079;BMP180;6932;51.438;5.470;2023-10-09T03:53:09;101559.00;;;21.50
15079;BMP180;6932;51.438;5.470;2023-10-09T03:55:38;101566.00;;;21.50
15079;BMP180;6932;51.438;5.470;2023-10-09T03:58:08;101556.00;;;21.50
15079;BMP180;6932;51.438;5.470;2023-10-09T04:00:40;101551.00;;;21.50
15079;BMP180;6932;51.438;5.470;2023-10-09T04:03:15;101553.00;;;21.50
15079;BMP180;6932;51.438;5.470;2023-10-09T04:05:42;101549.00;;;21.50
15079;BMP180;6932;51.438;5.470;2023-10-09T04:08:12;101551.00;;;21.50
15079;BMP180;6932;51.438;5.470;2023-10-09T04:10:57;101558.00;;;21.50
15079;BMP180;6932;51.438;5.470;2023-10-09T04:13:31;101548.00;;;21.50
15079;BMP180;6932;51.438;5.470;2023-10-09T04:16:03;101560.00;;;21.50
15079;BMP180;6932;51.438;5.470;2023-10-09T04:18:35;101567.00;;;21.50
15079;BMP180;6932;51.438;5.470;2023-10-09T04:21:05;101574.00;;;21.50
15079;BMP180;6932;51.438;5.470;2023-10-09T04:23:45;101561.00;;;21.50
15079;BMP180;6932;51.438;5.470;2023-10-09T04:26:30;101557.00;;;21.50
15079;BMP180;6932;51.438;5.470;2023-10-09T04:29:01;101558.00;;;21.50
15079;BMP180;6932;51.438;5.470;2023-10-09T04:31:28;101547.00;;;21.50
15079;BMP180;6932;51.438;5.470;2023-10-09T04:33:58;101541.00;;;21.50
15079;BMP180;6932;51.438;5.470;2023-10-09T04:36:57;101536.00;;;21.50
15079;BMP180;6932;51.438;5.470;2023-10-09T04:39:29;101540.00;;;21.40
15079;BMP180;6932;51.438;5.470;2023-10-09T04:41:59;101547.00;;;21.40
15079;BMP180;6932;51.438;5.470;2023-10-09T04:44:44;101566.00;;;21.40
15079;BMP180;6932;51.438;5.470;2023-10-09T04:47:27;101590.00;;;21.40
15079;BMP180;6932;51.438;5.470;2023-10-09T04:52:35;101586.00;;;21.40
15079;BMP180;6932;51.438;5.470;2023-10-09T04:55:01;101586.00;;;21.40
15079;BMP180;6932;51.438;5.470;2023-10-09T04:57:47;101595.00;;;21.40
15079;BMP180;6932;51.438;5.470;2023-10-09T05:00:26;101591.00;;;21.40
15079;BMP180;6932;51.438;5.470;2023-10-09T05:02:57;101583.00;;;21.40
15079;BMP180;6932;51.438;5.470;2023-10-09T05:05:28;101574.00;;;21.40
15079;BMP180;6932;51.438;5.470;2023-10-09T05:08:14;101576.00;;;21.40
15079;BMP180;6932;51.438;5.470;2023-10-09T05:11:04;101562.00;;;21.30
15079;BMP180;6932;51.438;5.470;2023-10-09T05:13:31;101572.00;;;21.40
15079;BMP180;6932;51.438;5.470;2023-10-09T05:16:17;101585.00;;;21.30
15079;BMP180;6932;51.438;5.470;2023-10-09T05:18:49;101570.00;;;21.30
15079;BMP180;6932;51.438;5.470;2023-10-09T05:21:39;101577.00;;;21.30
15079;BMP180;6932;51.438;5.470;2023-10-09T05:24:08;101582.00;;;21.30
15079;BMP180;6932;51.438;5.470;2023-10-09T05:26:42;101583.00;;;21.30
15079;BMP180;6932;51.438;5.470;2023-10-09T05:31:59;101596.00;;;21.30
15079;BMP180;6932;51.438;5.470;2023-10-09T05:34:45;101589.00;;;21.30
15079;BMP180;6932;51.438;5.470;2023-10-09T05:37:33;101595.00;;;21.30
15079;BMP180;6932;51.438;5.470;2023-10-09T05:40:04;101598.00;;;21.30
15079;BMP180;6932;51.438;5.470;2023-10-09T05:42:48;101608.00;;;21.30
15079;BMP180;6932;51.438;5.470;2023-10-09T05:45:26;101619.00;;;21.40
15079;BMP180;6932;51.438;5.470;2023-10-09T05:48:11;101622.00;;;21.40
15079;BMP180;6932;51.438;5.470;2023-10-09T05:50:43;101613.00;;;21.40
15079;BMP180;6932;51.438;5.470;2023-10-09T05:53:20;101619.00;;;21.40
15079;BMP180;6932;51.438;5.470;2023-10-09T05:56:04;101618.00;;;21.40
15079;BMP180;6932;51.438;5.470;2023-10-09T05:58:48;101619.00;;;21.40
15079;BMP180;6932;51.438;5.470;2023-10-09T06:01:40;101614.00;;;21.40
15079;BMP180;6932;51.438;5.470;2023-10-09T06:04:06;101619.00;;;21.40
15079;BMP180;6932;51.438;5.470;2023-10-09T06:06:42;101628.00;;;21.40
15079;BMP180;6932;51.438;5.470;2023-10-09T06:09:13;101629.00;;;21.40
15079;BMP180;6932;51.438;5.470;2023-10-09T06:11:40;101647.00;;;21.40
15079;BMP180;6932;51.438;5.470;2023-10-09T06:14:07;101642.00;;;21.40
15079;BMP180;6932;51.438;5.470;2023-10-09T06:16:37;101645.00;;;21.40
15079;BMP180;6932;51.438;5.470;2023-10-09T06:19:26;101650.00;;;21.40
15079;BMP180;6932;51.438;5.470;2023-10-09T06:21:59;101646.00;;;21.40
15079;BMP180;6932;51.438;5.470;2023-10-09T06:24:38;101649.00;;;21.40
15079;BMP180;6932;51.438;5.470;2023-10-09T06:27:04;101648.00;;;21.40
15079;BMP180;6932;51.438;5.470;2023-10-09T06:29:30;101639.00;;;21.40
15079;BMP180;6932;51.438;5.470;2023-10-09T06:32:08;101632.00;;;21.40
15079;BMP180;6932;51.438;5.470;2023-10-09T06:34:56;101629.00;;;21.40
15079;BMP180;6932;51.438;5.470;2023-10-09T06:37:42;101617.00;;;21.40
15079;BMP180;6932;51.438;5.470;2023-10-09T06:40:37;101627.00;;;21.40
15079;BMP180;6932;51.438;5.470;2023-10-09T06:43:23;101630.00;;;21.50
15079;BMP180;6932;51.438;5.470;2023-10-09T06:45:56;101639.00;;;21.50
15079;BMP180;6932;51.438;5.470;2023-10-09T06:48:40;101644.00;;;21.50
15079;BMP180;6932;51.438;5.470;2023-10-09T06:51:11;101646.00;;;21.50
15079;BMP180;6932;51.438;5.470;2023-10-09T06:53:53;101648.00;;;21.50
15079;BMP180;6932;51.438;5.470;2023-10-09T06:56:26;101645.00;;;21.50
15079;BMP180;6932;51.438;5.470;2023-10-09T06:59:04;101640.00;;;21.50
15079;BMP180;6932;51.438;5.470;2023-10-09T07:01:40;101643.00;;;21.60
15079;BMP180;6932;51.438;5.470;2023-10-09T07:04:12;101639.00;;;21.60
15079;BMP180;6932;51.438;5.470;2023-10-09T07:06:48;101632.00;;;21.60
15079;BMP180;6932;51.438;5.470;2023-10-09T07:09:15;101615.00;;;21.60
15079;BMP180;6932;51.438;5.470;2023-10-09T07:11:50;101623.00;;;21.60
15079;BMP180;6932;51.438;5.470;2023-10-09T07:14:24;101605.00;;;21.60
15079;BMP180;6932;51.438;5.470;2023-10-09T07:17:02;101599.00;;;21.60
15079;BMP180;6932;51.438;5.470;2023-10-09T07:19:31;101593.00;;;21.60
15079;BMP180;6932;51.438;5.470;2023-10-09T07:22:03;101586.00;;;21.70
15079;BMP180;6932;51.438;5.470;2023-10-09T07:24:30;101571.00;;;21.70
15079;BMP180;6932;51.438;5.470;2023-10-09T07:27:26;101568.00;;;21.70
15079;BMP180;6932;51.438;5.470;2023-10-09T07:30:14;101578.00;;;21.70
15079;BMP180;6932;51.438;5.470;2023-10-09T07:32:56;101587.00;;;21.70
15079;BMP180;6932;51.438;5.470;2023-10-09T07:35:32;101589.00;;;21.70
15079;BMP180;6932;51.438;5.470;2023-10-09T07:38:22;101591.00;;;21.70
15079;BMP180;6932;51.438;5.470;2023-10-09T07:40:50;101615.00;;;21.70
15079;BMP180;6932;51.438;5.470;2023-10-09T07:43:31;101652.00;;;21.70
15079;BMP180;6932;51.438;5.470;2023-10-09T07:46:16;101642.00;;;21.70
15079;BMP180;6932;51.438;5.470;2023-10-09T07:49:18;101664.00;;;21.70
15079;BMP180;6932;51.438;5.470;2023-10-09T07:51:53;101672.00;;;21.70
15079;BMP180;6932;51.438;5.470;2023-10-09T07:54:19;101663.00;;;21.80
15079;BMP180;6932;51.438;5.470;2023-10-09T07:57:11;101675.00;;;21.80
15079;BMP180;6932;51.438;5.470;2023-10-09T07:59:42;101668.00;;;21.80
15079;BMP180;6932;51.438;5.470;2023-10-09T08:02:21;101651.00;;;21.80
15079;BMP180;6932;51.438;5.470;2023-10-09T08:05:01;101633.00;;;21.80
15079;BMP180;6932;51.438;5.470;2023-10-09T08:07:33;101627.00;;;21.80
15079;BMP180;6932;51.438;5.470;2023-10-09T08:10:04;101622.00;;;21.80
15079;BMP180;6932;51.438;5.470;2023-10-09T08:12:42;101626.00;;;21.80
15079;BMP180;6932;51.438;5.470;2023-10-09T08:15:25;101623.00;;;21.90
15079;BMP180;6932;51.438;5.470;2023-10-09T08:18:00;101630.00;;;21.90
15079;BMP180;6932;51.438;5.470;2023-10-09T08:20:36;101645.00;;;21.90
15079;BMP180;6932;51.438;5.470;2023-10-09T08:23:23;101642.00;;;21.90
15079;BMP180;6932;51.438;5.470;2023-10-09T08:26:00;101649.00;;;21.90
15079;BMP180;6932;51.438;5.470;2023-10-09T08:28:43;101649.00;;;21.90
15079;BMP180;6932;51.438;5.470;2023-10-09T08:31:17;101655.00;;;21.90
15079;BMP180;6932;51.438;5.470;2023-10-09T08:34:00;101654.00;;;21.90
15079;BMP180;6932;51.438;5.470;2023-10-09T08:36:28;101662.00;;;22.00
15079;BMP180;6932;51.438;5.470;2023-10-09T08:38:57;101648.00;;;22.00
15079;BMP180;6932;51.438;5.470;2023-10-09T08:41:39;101635.00;;;22.10
15079;BMP180;6932;51.438;5.470;2023-10-09T08:44:07;101627.00;;;22.10
15079;BMP180;6932;51.438;5.470;2023-10-09T08:46:34;101635.00;;;22.20
15079;BMP180;6932;51.438;5.470;2023-10-09T08:49:02;101636.00;;;22.20
15079;BMP180;6932;51.438;5.470;2023-10-09T08:51:37;101632.00;;;22.20
15079;BMP180;6932;51.438;5.470;2023-10-09T08:54:03;101630.00;;;22.30
15079;BMP180;6932;51.438;5.470;2023-10-09T08:56:30;101619.00;;;22.30
15079;BMP180;6932;51.438;5.470;2023-10-09T08:58:58;101621.00;;;22.30
15079;BMP180;6932;51.438;5.470;2023-10-09T09:01:28;101627.00;;;22.40
15079;BMP180;6932;51.438;5.470;2023-10-09T09:03:58;101620.00;;;22.50
15079;BMP180;6932;51.438;5.470;2023-10-09T09:06:25;101629.00;;;22.50
15079;BMP180;6932;51.438;5.470;2023-10-09T09:08:52;101623.00;;;22.60
15079;BMP180;6932;51.438;5.470;2023-10-09T09:11:25;101623.00;;;22.60
15079;BMP180;6932;51.438;5.470;2023-10-09T09:16:32;101628.00;;;22.70
15079;BMP180;6932;51.438;5.470;2023-10-09T09:19:04;101623.00;;;22.80
15079;BMP180;6932;51.438;5.470;2023-10-09T09:21:38;101618.00;;;22.90
15079;BMP180;6932;51.438;5.470;2023-10-09T09:24:05;101632.00;;;23.00
15079;BMP180;6932;51.438;5.470;2023-10-09T09:26:46;101625.00;;;23.10
15079;BMP180;6932;51.438;5.470;2023-10-09T09:29:14;101631.00;;;23.20
15079;BMP180;6932;51.438;5.470;2023-10-09T09:31:56;101636.00;;;23.20
15079;BMP180;6932;51.438;5.470;2023-10-09T09:34:49;101656.00;;;23.30
15079;BMP180;6932;51.438;5.470;2023-10-09T09:37:23;101664.00;;;23.40
15079;BMP180;6932;51.438;5.470;2023-10-09T09:40:02;101657.00;;;23.40
15079;BMP180;6932;51.438;5.470;2023-10-09T09:42:48;101664.00;;;23.50
15079;BMP180;6932;51.438;5.470;2023-10-09T09:45:15;101670.00;;;23.50
15079;BMP180;6932;51.438;5.470;2023-10-09T09:47:45;101667.00;;;23.60
15079;BMP180;6932;51.438;5.470;2023-10-09T09:50:17;101664.00;;;23.60
15079;BMP180;6932;51.438;5.470;2023-10-09T09:52:55;101670.00;;;23.60
15079;BMP180;6932;51.438;5.470;2023-10-09T09:55:26;101685.00;;;23.60
15079;BMP180;6932;51.438;5.470;2023-10-09T09:57:58;101685.00;;;23.70
15079;BMP180;6932;51.438;5.470;2023-10-09T10:00:31;101674.00;;;23.70
15079;BMP180;6932;51.438;5.470;2023-10-09T10:03:19;101679.00;;;23.70
15079;BMP180;6932;51.438;5.470;2023-10-09T10:05:47;101677.00;;;23.70
15079;BMP180;6932;51.438;5.470;2023-10-09T10:08:21;101676.00;;;23.70
15079;BMP180;6932;51.438;5.470;2023-10-09T10:10:49;101682.00;;;23.80
15079;BMP180;6932;51.438;5.470;2023-10-09T10:16:15;101689.00;;;23.80
15079;BMP180;6932;51.438;5.470;2023-10-09T10:19:04;101680.00;;;23.80
15079;BMP180;6932;51.438;5.470;2023-10-09T10:21:40;101690.00;;;23.90
15079;BMP180;6932;51.438;5.470;2023-10-09T10:24:41;101684.00;;;23.80
15079;BMP180;6932;51.438;5.470;2023-10-09T10:27:21;101683.00;;;23.90
15079;BMP180;6932;51.438;5.470;2023-10-09T10:32:55;101685.00;;;24.00
15079;BMP180;6932;51.438;5.470;2023-10-09T10:35:24;101688.00;;;24.00
15079;BMP180;6932;51.438;5.470;2023-10-09T10:38:29;101692.00;;;24.00
15079;BMP180;6932;51.438;5.470;2023-10-09T10:41:19;101698.00;;;24.10
15079;BMP180;6932;51.438;5.470;2023-10-09T10:43:48;101682.00;;;24.10
15079;BMP180;6932;51.438;5.470;2023-10-09T10:46:20;101689.00;;;24.20
15079;BMP180;6932;51.438;5.470;2023-10-09T10:48:59;101690.00;;;24.20
15079;BMP180;6932;51.438;5.470;2023-10-09T10:51:35;101686.00;;;24.20
15079;BMP180;6932;51.438;5.470;2023-10-09T10:54:04;101691.00;;;24.30
15079;BMP180;6932;51.438;5.470;2023-10-09T10:56:49;101682.00;;;24.30
15079;BMP180;6932;51.438;5.470;2023-10-09T10:59:16;101671.00;;;24.40
15079;BMP180;6932;51.438;5.470;2023-10-09T11:01:49;101675.00;;;24.40
15079;BMP180;6932;51.438;5.470;2023-10-09T11:04:46;101680.00;;;24.40
15079;BMP180;6932;51.438;5.470;2023-10-09T11:07:22;101669.00;;;24.40
15079;BMP180;6932;51.438;5.470;2023-10-09T11:09:55;101672.00;;;24.30
15079;BMP180;6932;51.438;5.470;2023-10-09T11:12:27;101675.00;;;24.40
15079;BMP180;6932;51.438;5.470;2023-10-09T11:15:05;101675.00;;;24.40
15079;BMP180;6932;51.438;5.470;2023-10-09T11:17:33;101683.00;;;24.40
15079;BMP180;6932;51.438;5.470;2023-10-09T11:20:03;101683.00;;;24.40
15079;BMP180;6932;51.438;5.470;2023-10-09T11:22:52;101680.00;;;24.40
15079;BMP180;6932;51.438;5.470;2023-10-09T11:25:45;101678.00;;;24.40
15079;BMP180;6932;51.438;5.470;2023-10-09T11:28:19;101680.00;;;24.50
15079;BMP180;6932;51.438;5.470;2023-10-09T11:31:11;101670.00;;;24.50
15079;BMP180;6932;51.438;5.470;2023-10-09T11:36:16;101662.00;;;24.50
15079;BMP180;6932;51.438;5.470;2023-10-09T11:38:41;101672.00;;;24.60
15079;BMP180;6932;51.438;5.470;2023-10-09T11:41:19;101668.00;;;24.60
15079;BMP180;6932;51.438;5.470;2023-10-09T11:43:53;101661.00;;;24.70
15079;BMP180;6932;51.438;5.470;2023-10-09T11:46:23;101660.00;;;24.70
15079;BMP180;6932;51.438;5.470;2023-10-09T11:49:14;101658.00;;;24.80
15079;BMP180;6932;51.438;5.470;2023-10-09T11:51:46;101662.00;;;24.80
15079;BMP180;6932;51.438;5.470;2023-10-09T11:54:34;101660.00;;;24.80
15079;BMP180;6932;51.438;5.470;2023-10-09T11:57:03;101670.00;;;24.80
15079;BMP180;6932;51.438;5.470;2023-10-09T11:59:31;101663.00;;;24.80
15079;BMP180;6932;51.438;5.470;2023-10-09T12:02:08;101651.00;;;24.80
15079;BMP180;6932;51.438;5.470;2023-10-09T12:04:41;101664.00;;;24.80
15079;BMP180;6932;51.438;5.470;2023-10-09T12:07:10;101670.00;;;24.90
15079;BMP180;6932;51.438;5.470;2023-10-09T12:09:39;101660.00;;;24.90
15079;BMP180;6932;51.438;5.470;2023-10-09T12:12:07;101662.00;;;24.90
15079;BMP180;6932;51.438;5.470;2023-10-09T12:14:36;101660.00;;;24.90
15079;BMP180;6932;51.438;5.470;2023-10-09T12:17:07;101664.00;;;24.90
15079;BMP180;6932;51.438;5.470;2023-10-09T12:19:38;101660.00;;;24.90
15079;BMP180;6932;51.438;5.470;2023-10-09T12:22:06;101661.00;;;24.90
15079;BMP180;6932;51.438;5.470;2023-10-09T12:24:36;101663.00;;;25.00
15079;BMP180;6932;51.438;5.470;2023-10-09T12:27:03;101666.00;;;25.00
15079;BMP180;6932;51.438;5.470;2023-10-09T12:29:35;101661.00;;;25.00
15079;BMP180;6932;51.438;5.470;2023-10-09T12:32:01;101658.00;;;25.10
15079;BMP180;6932;51.438;5.470;2023-10-09T12:34:28;101658.00;;;25.10
15079;BMP180;6932;51.438;5.470;2023-10-09T12:36:57;101653.00;;;25.10
15079;BMP180;6932;51.438;5.470;2023-10-09T12:39:27;101647.00;;;25.10
15079;BMP180;6932;51.438;5.470;2023-10-09T12:41:59;101655.00;;;25.10
15079;BMP180;6932;51.438;5.470;2023-10-09T12:44:35;101666.00;;;25.10
15079;BMP180;6932;51.438;5.470;2023-10-09T12:47:09;101652.00;;;25.10
15079;BMP180;6932;51.438;5.470;2023-10-09T12:49:38;101650.00;;;25.20
15079;BMP180;6932;51.438;5.470;2023-10-09T12:52:10;101644.00;;;25.20
15079;BMP180;6932;51.438;5.470;2023-10-09T12:54:45;101644.00;;;25.20
15079;BMP180;6932;51.438;5.470;2023-10-09T12:57:14;101639.00;;;25.20
15079;BMP180;6932;51.438;5.470;2023-10-09T12:59:41;101639.00;;;25.20
15079;BMP180;6932;51.438;5.470;2023-10-09T13:02:15;101643.00;;;25.30
15079;BMP180;6932;51.438;5.470;2023-10-09T13:04:57;101631.00;;;25.30
15079;BMP180;6932;51.438;5.470;2023-10-09T13:07:23;101624.00;;;25.30
15079;BMP180;6932;51.438;5.470;2023-10-09T13:09:49;101615.00;;;25.30
15079;BMP180;6932;51.438;5.470;2023-10-09T13:12:50;101609.00;;;25.30
15079;BMP180;6932;51.438;5.470;2023-10-09T13:15:21;101614.00;;;25.30
15079;BMP180;6932;51.438;5.470;2023-10-09T13:17:47;101614.00;;;25.40
15079;BMP180;6932;51.438;5.470;2023-10-09T13:20:13;101619.00;;;25.40
15079;BMP180;6932;51.438;5.470;2023-10-09T13:22:40;101619.00;;;25.40
15079;BMP180;6932;51.438;5.470;2023-10-09T13:25:09;101612.00;;;25.40
15079;BMP180;6932;51.438;5.470;2023-10-09T13:27:42;101616.00;;;25.50
15079;BMP180;6932;51.438;5.470;2023-10-09T13:30:09;101608.00;;;25.50
15079;BMP180;6932;51.438;5.470;2023-10-09T13:32:48;101604.00;;;25.50
15079;BMP180;6932;51.438;5.470;2023-10-09T13:35:17;101621.00;;;25.50
15079;BMP180;6932;51.438;5.470;2023-10-09T13:37:45;101623.00;;;25.50
15079;BMP180;6932;51.438;5.470;2023-10-09T13:40:22;101626.00;;;25.50
15079;BMP180;6932;51.438;5.470;2023-10-09T13:42:57;101625.00;;;25.50
15079;BMP180;6932;51.438;5.470;2023-10-09T13:45:26;101621.00;;;25.60
15079;BMP180;6932;51.438;5.470;2023-10-09T13:47:59;101624.00;;;25.60
15079;BMP180;6932;51.438;5.470;2023-10-09T13:50:28;101617.00;;;25.60
15079;BMP180;6932;51.438;5.470;2023-10-09T13:52:58;101620.00;;;25.60
15079;BMP180;6932;51.438;5.470;2023-10-09T13:55:24;101619.00;;;25.60
15079;BMP180;6932;51.438;5.470;2023-10-09T13:57:59;101618.00;;;25.60
15079;BMP180;6932;51.438;5.470;2023-10-09T14:00:25;101620.00;;;25.60
15079;BMP180;6932;51.438;5.470;2023-10-09T14:03:08;101633.00;;;25.60
15079;BMP180;6932;51.438;5.470;2023-10-09T14:05:40;101618.00;;;25.60
15079;BMP180;6932;51.438;5.470;2023-10-09T14:08:23;101628.00;;;25.60
15079;BMP180;6932;51.438;5.470;2023-10-09T14:10:49;101632.00;;;25.70
15079;BMP180;6932;51.438;5.470;2023-10-09T14:13:16;101635.00;;;25.70
15079;BMP180;6932;51.438;5.470;2023-10-09T14:15:52;101625.00;;;25.80
15079;BMP180;6932;51.438;5.470;2023-10-09T14:18:21;101625.00;;;25.80
15079;BMP180;6932;51.438;5.470;2023-10-09T14:20:47;101636.00;;;25.80
15079;BMP180;6932;51.438;5.470;2023-10-09T14:23:13;101620.00;;;25.90
15079;BMP180;6932;51.438;5.470;2023-10-09T14:25:46;101621.00;;;25.90
15079;BMP180;6932;51.438;5.470;2023-10-09T14:28:15;101626.00;;;25.90
15079;BMP180;6932;51.438;5.470;2023-10-09T14:30:45;101622.00;;;26.00
15079;BMP180;6932;51.438;5.470;2023-10-09T14:33:14;101622.00;;;26.00
15079;BMP180;6932;51.438;5.470;2023-10-09T14:35:48;101621.00;;;26.00
15079;BMP180;6932;51.438;5.470;2023-10-09T14:38:14;101620.00;;;26.00
15079;BMP180;6932;51.438;5.470;2023-10-09T14:40:47;101627.00;;;25.90
15079;BMP180;6932;51.438;5.470;2023-10-09T14:43:13;101627.00;;;25.90
15079;BMP180;6932;51.438;5.470;2023-10-09T14:45:49;101622.00;;;25.90
15079;BMP180;6932;51.438;5.470;2023-10-09T14:48:15;101630.00;;;25.90
15079;BMP180;6932;51.438;5.470;2023-10-09T14:50:50;101628.00;;;25.80
15079;BMP180;6932;51.438;5.470;2023-10-09T14:53:23;101626.00;;;25.90
15079;BMP180;6932;51.438;5.470;2023-10-09T14:55:56;101627.00;;;25.90
15079;BMP180;6932;51.438;5.470;2023-10-09T14:58:22;101609.00;;;25.90
15079;BMP180;6932;51.438;5.470;2023-10-09T15:00:54;101613.00;;;25.80
15079;BMP180;6932;51.438;5.470;2023-10-09T15:03:20;101614.00;;;25.80
15079;BMP180;6932;51.438;5.470;2023-10-09T15:05:47;101613.00;;;25.80